Time;durP1;ratioP1;P1;durP2;ratioP2;P2;SDS_P1;SDS_P2;PMS_P1;PMS_P2;Temp;Humidity;BMP_temperature;BMP_pressure;BME280_temperature;BME280_humidity;BME280_pressure;Samples;Min_cycle;Max_cycle;Signal;HPM_P1;HPM_P2
2023/12/27 00:02:03;;;;;;;1.40;1.27;;;;;;;9.14;100.00;100409.59;5025813;28;21107;-76
2023/12/27 00:04:29;;;;;;;0.73;0.68;;;;;;;8.91;100.00;100384.16;5019357;28;20798;-76
2023/12/27 00:06:56;;;;;;;1.35;1.27;;;;;;;8.87;100.00;100404.19;5024043;28;20437;-77
2023/12/27 00:09:22;;;;;;;8.60;5.60;;;;;;;8.83;100.00;100399.81;5022339;28;20152;-77
2023/12/27 00:11:47;;;;;;;0.70;0.70;;;;;;;8.75;100.00;100393.63;5027968;28;20505;-77
2023/12/27 00:14:13;;;;;;;0.90;0.85;;;;;;;8.95;100.00;100412.09;5031100;28;20056;-78
2023/12/27 00:16:40;;;;;;;0.20;0.20;;;;;;;8.69;100.00;100370.06;5020397;28;20036;-76
2023/12/27 00:19:05;;;;;;;1.38;1.27;;;;;;;8.28;100.00;100310.44;5004858;28;20143;-78
2023/12/27 00:21:31;;;;;;;0.38;0.38;;;;;;;8.56;100.00;100397.84;5017816;28;20086;-77
2023/12/27 00:23:56;;;;;;;14.90;6.93;;;;;;;8.86;100.00;100436.44;5022207;28;20053;-77
2023/12/27 00:26:22;;;;;;;1.92;1.83;;;;;;;8.75;100.00;100438.09;5022937;28;20084;-78
2023/12/27 00:28:47;;;;;;;32.45;13.35;;;;;;;8.71;100.00;100427.59;5026573;28;20064;-77
2023/12/27 00:31:13;;;;;;;3.72;3.53;;;;;;;8.69;100.00;100440.69;5024176;28;20036;-77
2023/12/27 00:33:38;;;;;;;4.43;4.22;;;;;;;8.60;100.00;100443.22;5020502;28;20049;-76
2023/12/27 00:36:06;;;;;;;1.42;1.38;;;;;;;8.21;100.00;100369.63;5035749;28;20112;-76
2023/12/27 00:38:32;;;;;;;5.88;3.75;;;;;;;8.69;100.00;100473.81;5026238;28;20055;-76
2023/12/27 00:40:59;;;;;;;1.58;1.48;;;;;;;8.69;100.00;100471.22;5027378;28;20057;-78
2023/12/27 00:43:24;;;;;;;0.40;0.40;;;;;;;8.66;100.00;100487.72;5034528;28;20087;-77
2023/12/27 00:45:50;;;;;;;3.28;2.97;;;;;;;8.17;100.00;100396.63;5023613;28;20132;-75
2023/12/27 00:48:16;;;;;;;3.22;3.05;;;;;;;7.98;100.00;100379.00;5029892;28;20159;-77
2023/12/27 00:50:41;;;;;;;0.40;0.40;;;;;;;8.51;100.00;100491.09;5032378;28;20064;-76
2023/12/27 00:53:07;;;;;;;0.30;0.30;;;;;;;7.87;100.00;100378.03;5026200;28;20055;-74
2023/12/27 00:55:32;;;;;;;1.27;1.27;;;;;;;8.07;100.00;100423.50;5008031;28;20025;-75
2023/12/27 00:57:58;;;;;;;7.78;5.32;;;;;;;7.97;100.00;100419.06;5031870;28;20790;-75
2023/12/27 01:00:24;;;;;;;0.32;0.32;;;;;;;8.34;100.00;100519.66;5035066;28;20045;-77
2023/12/27 01:02:49;;;;;;;5.70;4.70;;;;;;;8.20;100.00;100521.25;5027666;28;20132;-76
2023/12/27 01:05:15;;;;;;;0.30;0.30;;;;;;;7.55;100.00;100407.25;5030787;28;20037;-76
2023/12/27 01:07:40;;;;;;;0.40;0.40;;;;;;;7.59;100.00;100449.09;5023835;28;20146;-76
2023/12/27 01:10:06;;;;;;;0.30;0.30;;;;;;;8.06;100.00;100525.44;5027531;28;20040;-76
2023/12/27 01:12:31;;;;;;;2.13;1.98;;;;;;;8.03;100.00;100540.22;5028336;28;20051;-77
2023/12/27 01:14:57;;;;;;;0.40;0.40;;;;;;;7.20;100.00;100446.81;5029072;28;20098;-76
2023/12/27 01:17:23;;;;;;;0.55;0.52;;;;;;;7.33;100.00;100447.91;5028822;28;20049;-76
2023/12/27 01:19:48;;;;;;;0.30;0.30;;;;;;;7.70;100.00;100552.81;5027144;28;20666;-75
2023/12/27 01:22:14;;;;;;;1.15;1.00;;;;;;;7.70;100.00;100558.94;5037625;28;20053;-78
2023/12/27 01:24:39;;;;;;;0.50;0.50;;;;;;;7.30;100.00;100503.50;5032087;28;20076;-77
2023/12/27 01:27:05;;;;;;;0.35;0.35;;;;;;;6.86;100.00;100416.75;5022520;28;20061;-77
2023/12/27 01:29:30;;;;;;;0.30;0.30;;;;;;;7.05;100.00;100476.19;5021585;28;20406;-77
2023/12/27 01:31:56;;;;;;;0.43;0.38;;;;;;;7.15;100.00;100488.50;5025793;28;20918;-75
2023/12/27 01:34:21;;;;;;;0.50;0.50;;;;;;;6.92;100.00;100476.84;5021951;28;20065;-76
2023/12/27 01:36:47;;;;;;;1.27;1.20;;;;;;;7.14;100.00;100483.25;5018783;28;20056;-77
2023/12/27 01:39:12;;;;;;;2.35;2.25;;;;;;;6.72;100.00;100447.84;5022643;28;20409;-79
2023/12/27 01:41:38;;;;;;;1.08;1.08;;;;;;;6.91;100.00;100467.28;5022139;28;20045;-78
2023/12/27 01:44:04;;;;;;;0.90;0.88;;;;;;;6.94;100.00;100476.00;5020723;28;20056;-77
2023/12/27 01:46:30;;;;;;;0.93;0.93;;;;;;;6.84;100.00;100460.22;5024989;28;20430;-79
2023/12/27 01:48:57;;;;;;;5.57;3.40;;;;;;;6.55;100.00;100440.63;5036893;28;20057;-78
2023/12/27 01:51:24;;;;;;;0.65;0.65;;;;;;;7.09;100.00;100545.81;5027293;28;20103;-80
2023/12/27 01:53:50;;;;;;;6.68;2.50;;;;;;;7.31;100.00;100587.94;5034540;28;20088;-77
2023/12/27 01:56:16;;;;;;;14.30;13.15;;;;;;;7.18;100.00;100592.94;5027481;28;20087;-78
2023/12/27 01:58:41;;;;;;;0.90;0.85;;;;;;;6.86;100.00;100544.53;5031872;28;20548;-79
2023/12/27 02:01:07;;;;;;;0.40;0.40;;;;;;;7.21;100.00;100612.09;5024027;28;20034;-77
2023/12/27 02:03:32;;;;;;;2.35;2.25;;;;;;;7.28;100.00;100614.88;5027840;28;20040;-77
2023/12/27 02:05:59;;;;;;;0.40;0.40;;;;;;;7.18;100.00;100632.06;5022661;28;20135;-78
2023/12/27 02:08:26;;;;;;;0.40;0.40;;;;;;;6.72;100.00;100554.78;5022462;28;20144;-80
2023/12/27 02:10:52;;;;;;;3.33;3.03;;;;;;;6.34;100.00;100488.06;5028618;28;20153;-77
2023/12/27 02:13:19;;;;;;;3.13;2.83;;;;;;;6.40;100.00;100471.63;5032254;28;20041;-78
2023/12/27 02:15:46;;;;;;;0.55;0.55;;;;;;;7.08;100.00;100590.16;5023396;28;20041;-77
2023/12/27 02:18:12;;;;;;;1.75;1.65;;;;;;;7.10;100.00;100594.53;5029436;28;20106;-77
2023/12/27 02:20:40;;;;;;;1.98;1.88;;;;;;;7.01;100.00;100610.03;5026300;28;20049;-77
2023/12/27 02:23:09;;;;;;;3.20;3.10;;;;;;;6.41;100.00;100535.06;5014897;28;20109;-77
2023/12/27 02:25:35;;;;;;;0.47;0.47;;;;;;;6.69;100.00;100563.38;5019759;28;20044;-75
2023/12/27 02:28:00;;;;;;;1.23;1.20;;;;;;;6.30;100.00;100512.28;5022538;28;20496;-77
2023/12/27 02:30:27;;;;;;;0.40;0.40;;;;;;;6.79;100.00;100564.47;5024329;28;20137;-78
2023/12/27 02:32:53;;;;;;;7.68;7.32;;;;;;;6.86;100.00;100583.66;5025647;28;20056;-76
2023/12/27 02:35:18;;;;;;;0.30;0.30;;;;;;;6.94;100.00;100596.00;5020986;28;20433;-76
2023/12/27 02:37:44;;;;;;;1.13;1.08;;;;;;;6.53;100.00;100515.31;5018529;28;20037;-76
2023/12/27 02:40:10;;;;;;;3.00;2.80;;;;;;;6.60;100.00;100550.19;5030127;28;20068;-75
2023/12/27 02:42:37;;;;;;;1.20;1.20;;;;;;;6.85;100.00;100569.75;5020814;28;20080;-77
2023/12/27 02:45:03;;;;;;;0.85;0.85;;;;;;;6.76;100.00;100585.25;5029804;28;20115;-76
2023/12/27 02:47:29;;;;;;;0.40;0.40;;;;;;;6.13;100.00;100453.75;5032732;28;20523;-78
2023/12/27 02:49:54;;;;;;;0.40;0.40;;;;;;;7.05;100.00;100617.06;5030157;28;20062;-77
2023/12/27 02:52:20;;;;;;;0.70;0.60;;;;;;;6.79;100.00;100613.09;5028484;28;20029;-78
2023/12/27 02:54:45;;;;;;;2.50;2.35;;;;;;;6.24;100.00;100532.13;5034472;28;20451;-76
2023/12/27 02:57:12;;;;;;;0.73;0.73;;;;;;;6.86;100.00;100630.63;5034664;28;20053;-77
2023/12/27 02:59:37;;;;;;;3.30;3.20;;;;;;;6.55;100.00;100547.53;5024238;28;20497;-77
2023/12/27 03:02:03;;;;;;;2.60;2.50;;;;;;;6.37;100.00;100535.84;5024910;28;20053;-77
2023/12/27 03:04:28;;;;;;;1.75;1.65;;;;;;;6.82;100.00;100607.97;5024906;28;20030;-77
2023/12/27 03:06:54;;;;;;;2.72;2.63;;;;;;;6.91;100.00;100626.38;5031891;28;20052;-76
2023/12/27 03:09:19;;;;;;;0.40;0.40;;;;;;;6.32;100.00;100525.31;5032804;28;20076;-79
2023/12/27 03:11:46;;;;;;;0.65;0.65;;;;;;;6.97;100.00;100640.41;5027211;28;20048;-79
2023/12/27 03:14:14;;;;;;;1.20;1.10;;;;;;;6.43;100.00;100534.22;5031478;28;20049;-79
2023/12/27 03:16:39;;;;;;;6.50;3.03;;;;;;;6.42;100.00;100542.03;5037109;28;20051;-77
2023/12/27 03:19:05;;;;;;;2.15;2.05;;;;;;;6.39;100.00;100548.06;5027097;28;20029;-78
2023/12/27 03:21:30;;;;;;;7.68;7.20;;;;;;;6.90;100.00;100648.09;5024189;28;20049;-78
2023/12/27 03:23:56;;;;;;;0.57;0.57;;;;;;;6.76;100.00;100635.66;5029691;28;20046;-77
2023/12/27 03:26:21;;;;;;;0.75;0.75;;;;;;;6.17;100.00;100567.59;5031697;28;20046;-77
2023/12/27 03:28:47;;;;;;;3.47;3.30;;;;;;;5.88;100.00;100539.22;5030692;28;22834;-77
2023/12/27 03:31:13;;;;;;;0.30;0.30;;;;;;;6.22;100.00;100579.00;5017314;28;20045;-79
2023/12/27 03:33:38;;;;;;;1.17;0.93;;;;;;;6.96;100.00;100663.88;5020915;28;20045;-77
2023/12/27 03:36:05;;;;;;;0.55;0.55;;;;;;;6.88;100.00;100653.31;5010048;28;20915;-79
2023/12/27 03:38:30;;;;;;;2.15;2.03;;;;;;;6.34;100.00;100557.50;5031309;28;20131;-77
2023/12/27 03:40:55;;;;;;;0.63;0.63;;;;;;;6.90;100.00;100648.09;5037836;28;20048;-78
2023/12/27 03:43:21;;;;;;;2.92;2.72;;;;;;;6.88;100.00;100650.69;5037765;28;20451;-75
2023/12/27 03:45:49;;;;;;;8.70;4.47;;;;;;;7.03;100.00;100662.25;5018920;28;20045;-77
2023/12/27 03:48:15;;;;;;;4.50;4.28;;;;;;;6.94;100.00;100647.31;5036237;28;20130;-76
2023/12/27 03:50:40;;;;;;;0.95;0.95;;;;;;;6.78;100.00;100606.13;5028241;28;20049;-76
2023/12/27 03:53:06;;;;;;;10.73;6.93;;;;;;;6.39;100.00;100540.25;5029224;28;20069;-75
2023/12/27 03:55:31;;;;;;;0.93;0.93;;;;;;;6.90;100.00;100650.69;5032372;28;20030;-75
2023/12/27 03:57:57;;;;;;;10.20;9.63;;;;;;;6.93;100.00;100658.56;5032917;28;20127;-79
2023/12/27 04:00:23;;;;;;;6.30;5.25;;;;;;;6.39;100.00;100594.09;5026949;28;20081;-76
2023/12/27 04:02:49;;;;;;;0.45;0.45;;;;;;;6.86;100.00;100662.81;5033063;28;20091;-75
2023/12/27 04:05:15;;;;;;;0.30;0.30;;;;;;;6.68;100.00;100646.81;5035334;28;20084;-76
2023/12/27 04:07:40;;;;;;;0.80;0.77;;;;;;;6.60;100.00;100659.69;5031545;28;20486;-75
2023/12/27 04:10:06;;;;;;;3.85;3.60;;;;;;;6.76;100.00;100690.44;5025773;28;20152;-76
2023/12/27 04:12:32;;;;;;;1.05;1.05;;;;;;;6.28;100.00;100622.56;5025202;28;20085;-76
2023/12/27 04:14:58;;;;;;;0.30;0.30;;;;;;;6.83;100.00;100695.78;5023388;28;20057;-76
2023/12/27 04:17:25;;;;;;;0.32;0.32;;;;;;;6.36;100.00;100639.22;5030965;28;20037;-76
2023/12/27 04:19:50;;;;;;;1.50;1.40;;;;;;;6.75;100.00;100714.75;5027133;28;20389;-76
2023/12/27 04:22:16;;;;;;;0.93;0.88;;;;;;;6.16;100.00;100638.81;5026246;28;20028;-75
2023/12/27 04:24:41;;;;;;;0.63;0.63;;;;;;;6.86;100.00;100725.41;5027000;28;20128;-77
2023/12/27 04:27:07;;;;;;;1.65;1.55;;;;;;;6.80;100.00;100733.09;5024403;28;20135;-76
2023/12/27 04:29:34;;;;;;;1.65;1.58;;;;;;;6.73;100.00;100731.22;5025239;28;20041;-76
2023/12/27 04:31:59;;;;;;;1.55;1.45;;;;;;;6.12;100.00;100636.97;5027825;28;20065;-76
2023/12/27 04:34:25;;;;;;;1.85;1.40;;;;;;;6.66;100.00;100740.63;5031113;28;20030;-77
2023/12/27 04:36:50;;;;;;;0.65;0.65;;;;;;;6.47;100.00;100746.31;5035290;28;20875;-76
2023/12/27 04:39:16;;;;;;;0.38;0.38;;;;;;;6.13;100.00;100665.69;5035614;28;20049;-75
2023/12/27 04:41:42;;;;;;;0.30;0.30;;;;;;;6.76;100.00;100767.78;5025999;28;20050;-76
2023/12/27 04:44:07;;;;;;;1.42;1.33;;;;;;;6.55;100.00;100756.06;5026074;28;20136;-79
2023/12/27 04:46:36;;;;;;;0.30;0.30;;;;;;;6.66;100.00;100752.81;5038198;28;20076;-77
2023/12/27 04:49:03;;;;;;;2.70;2.60;;;;;;;5.86;100.00;100633.78;5037803;28;20040;-76
2023/12/27 04:51:29;;;;;;;0.38;0.38;;;;;;;5.94;100.00;100653.06;5030516;28;20446;-78
2023/12/27 04:53:54;;;;;;;1.38;0.95;;;;;;;6.58;100.00;100773.50;5030317;28;20053;-77
2023/12/27 04:56:20;;;;;;;3.90;2.92;;;;;;;6.63;100.00;100774.47;5026490;28;20096;-78
2023/12/27 04:58:45;;;;;;;3.75;3.03;;;;;;;6.51;100.00;100751.63;5026188;28;20529;-77
2023/12/27 05:01:11;;;;;;;0.40;0.40;;;;;;;6.39;100.00;100766.09;5031020;28;20122;-76
2023/12/27 05:03:40;;;;;;;0.60;0.60;;;;;;;5.80;100.00;100676.16;5035021;28;20048;-76
2023/12/27 05:06:10;;;;;;;0.43;0.43;;;;;;;5.65;100.00;100662.78;5033293;28;20059;-77
2023/12/27 05:08:38;;;;;;;2.10;1.52;;;;;;;6.23;100.00;100770.09;5032625;28;20037;-75
2023/12/27 05:11:13;;;;;;;0.40;0.40;;;;;;;5.48;100.00;100652.84;5015896;28;20049;-77
2023/12/27 05:13:40;;;;;;;2.40;2.30;;;;;;;5.88;100.00;100710.22;5021884;28;20064;-77
2023/12/27 05:16:10;;;;;;;0.32;0.32;;;;;;;6.08;100.00;100762.78;5024209;28;20053;-77
2023/12/27 05:18:37;;;;;;;0.40;0.40;;;;;;;6.30;100.00;100796.34;5028694;28;20132;-77
2023/12/27 05:21:03;;;;;;;0.52;0.52;;;;;;;5.78;100.00;100727.31;5016267;28;20037;-76
2023/12/27 05:23:29;;;;;;;0.90;0.90;;;;;;;6.19;100.00;100802.13;5024328;28;20049;-76
2023/12/27 05:25:56;;;;;;;1.20;1.20;;;;;;;5.74;100.00;100740.25;5028038;28;20091;-75
2023/12/27 05:28:22;;;;;;;1.38;1.27;;;;;;;6.08;100.00;100809.69;5021296;28;20049;-76
2023/12/27 05:30:48;;;;;;;4.10;3.00;;;;;;;5.90;100.00;100784.91;5033332;28;20053;-76
2023/12/27 05:33:13;;;;;;;2.00;1.95;;;;;;;5.91;100.00;100809.22;5025330;28;20537;-75
2023/12/27 05:35:40;;;;;;;0.30;0.30;;;;;;;5.99;100.00;100865.03;5021013;28;20061;-77
2023/12/27 05:38:06;;;;;;;0.35;0.35;;;;;;;5.14;100.00;100775.97;4998366;28;20049;-75
2023/12/27 05:40:31;;;;;;;0.57;0.50;;;;;;;5.36;100.00;100773.94;5014395;28;20477;-77
2023/12/27 05:42:57;;;;;;;1.38;0.65;;;;;;;5.29;100.00;100810.22;5025969;28;20061;-77
2023/12/27 05:45:22;;;;;;;0.45;0.45;;;;;;;5.46;100.00;100865.31;5016367;28;20169;-78
2023/12/27 05:47:48;;;;;;;0.40;0.40;;;;;;;5.64;100.00;100895.28;5011349;28;20068;-76
2023/12/27 05:50:16;;;;;;;1.17;1.15;;;;;;;5.44;100.00;100820.16;5006008;28;20810;-75
2023/12/27 05:52:43;;;;;;;1.00;1.00;;;;;;;5.67;100.00;100866.78;5022350;28;20045;-75
2023/12/27 05:55:08;;;;;;;1.20;1.15;;;;;;;5.78;100.00;100906.09;5022436;28;20041;-75
2023/12/27 05:57:34;;;;;;;2.25;2.15;;;;;;;5.12;100.00;100818.38;5033839;28;20037;-75
2023/12/27 05:59:59;;;;;;;6.88;6.43;;;;;;;5.21;100.00;100813.44;5021196;28;20472;-74
2023/12/27 06:02:25;;;;;;;0.30;0.30;;;;;;;5.72;100.00;100906.81;5020887;28;20508;-75
2023/12/27 06:04:51;;;;;;;0.70;0.70;;;;;;;5.37;100.00;100830.38;5017497;28;20539;-75
2023/12/27 06:07:16;;;;;;;2.10;1.75;;;;;;;5.13;100.00;100812.31;5029209;28;20040;-75
2023/12/27 06:09:42;;;;;;;0.40;0.40;;;;;;;5.27;100.00;100858.72;5032090;28;20044;-74
2023/12/27 06:12:08;;;;;;;0.70;0.70;;;;;;;5.14;100.00;100814.97;5036837;28;20052;-75
2023/12/27 06:14:34;;;;;;;0.47;0.47;;;;;;;5.18;100.00;100813.34;5031039;28;20127;-74
2023/12/27 06:17:00;;;;;;;15.98;6.43;;;;;;;5.54;100.00;100875.06;5031724;28;20051;-76
2023/12/27 06:19:25;;;;;;;0.45;0.45;;;;;;;5.19;100.00;100804.69;5025880;28;20136;-76
2023/12/27 06:21:51;;;;;;;0.47;0.47;;;;;;;5.94;100.00;100926.53;5026468;28;20393;-75
2023/12/27 06:24:16;;;;;;;0.40;0.40;;;;;;;5.20;100.00;100843.78;5036580;28;20146;-75
2023/12/27 06:26:42;;;;;;;3.53;3.33;;;;;;;5.79;100.00;100955.63;5024491;28;20037;-75
2023/12/27 06:29:07;;;;;;;0.63;0.63;;;;;;;5.28;100.00;100876.09;5037136;28;20061;-74
2023/12/27 06:31:34;;;;;;;0.40;0.40;;;;;;;5.44;100.00;100871.34;5035124;28;20092;-75
2023/12/27 06:34:01;;;;;;;1.98;1.50;;;;;;;6.00;100.00;100971.00;5022764;28;20120;-74
2023/12/27 06:36:27;;;;;;;0.40;0.40;;;;;;;5.45;100.00;100902.59;5024754;28;20049;-74
2023/12/27 06:38:53;;;;;;;0.30;0.30;;;;;;;6.05;100.00;100974.59;5034472;28;20376;-76
2023/12/27 06:41:18;;;;;;;1.67;1.58;;;;;;;5.84;100.00;100961.84;5027795;28;20044;-75
2023/12/27 06:43:45;;;;;;;0.38;0.38;;;;;;;5.89;100.00;100959.34;5016039;28;20034;-76
2023/12/27 06:46:11;;;;;;;0.30;0.30;;;;;;;5.89;100.00;100957.63;5025973;28;20129;-74
2023/12/27 06:48:36;;;;;;;2.05;1.95;;;;;;;5.57;100.00;100886.47;5012103;28;20128;-74
2023/12/27 06:51:05;;;;;;;1.73;1.63;;;;;;;5.92;100.00;100943.81;5024966;28;20052;-75
2023/12/27 06:53:30;;;;;;;1.33;1.05;;;;;;;4.51;100.00;100705.69;5031350;28;20045;-76
2023/12/27 06:55:57;;;;;;;0.60;0.50;;;;;;;6.24;100.00;100983.81;5018616;28;20048;-75
2023/12/27 06:58:23;;;;;;;0.40;0.40;;;;;;;6.08;100.00;100959.03;5037415;28;20041;-75
2023/12/27 07:00:48;;;;;;;0.30;0.30;;;;;;;6.33;100.00;100980.56;5015267;28;20041;-75
2023/12/27 07:03:14;;;;;;;0.40;0.40;;;;;;;6.01;100.00;100910.22;5031190;28;20065;-75
2023/12/27 07:05:39;;;;;;;0.38;0.38;;;;;;;6.13;100.00;100907.06;5026755;28;20123;-75
2023/12/27 07:08:05;;;;;;;1.13;1.13;;;;;;;6.41;100.00;100949.47;5036824;28;20063;-75
2023/12/27 07:10:31;;;;;;;13.15;12.40;;;;;;;5.47;100.00;100812.41;5037665;28;20037;-75
2023/12/27 07:12:57;;;;;;;0.40;0.40;;;;;;;6.57;100.00;100979.44;5032473;28;20044;-74
2023/12/27 07:15:24;;;;;;;0.50;0.50;;;;;;;6.01;100.00;100878.09;5034457;28;20144;-75
2023/12/27 07:17:49;;;;;;;2.28;2.15;;;;;;;6.57;100.00;100975.09;5032371;28;20160;-75
2023/12/27 07:20:15;;;;;;;1.67;1.58;;;;;;;6.82;100.00;101010.50;5030686;28;20149;-75
2023/12/27 07:22:41;;;;;;;3.90;3.75;;;;;;;6.88;100.00;100995.00;5031927;28;20049;-74
2023/12/27 07:25:10;;;;;;;0.30;0.30;;;;;;;6.85;100.00;100996.66;5036680;28;20036;-74
2023/12/27 07:27:37;;;;;;;0.30;0.30;;;;;;;6.95;100.00;100999.53;5026883;28;20120;-76
2023/12/27 07:30:04;;;;;;;0.40;0.40;;;;;;;6.75;100.00;100995.53;5028193;28;20037;-75
2023/12/27 07:32:30;;;;;;;10.65;9.77;;;;;;;6.79;100.00;100968.69;5026797;28;20528;-76
2023/12/27 07:34:57;;;;;;;3.28;3.03;;;;;;;7.04;100.00;101016.22;5016574;28;20057;-76
2023/12/27 07:37:26;;;;;;;2.55;2.42;;;;;;;7.14;100.00;101002.56;5038371;28;20291;-75
2023/12/27 07:39:54;;;;;;;13.45;10.35;;;;;;;6.60;100.00;100927.34;5019097;28;20057;-76
2023/12/27 07:42:21;;;;;;;0.93;0.93;;;;;;;7.12;100.00;100999.06;5030548;28;20631;-76
2023/12/27 07:44:47;;;;;;;1.95;1.85;;;;;;;6.70;100.00;100929.34;5031309;28;20507;-75
2023/12/27 07:47:12;;;;;;;0.30;0.30;;;;;;;7.35;100.00;101028.25;5032236;28;20118;-76
2023/12/27 07:49:38;;;;;;;8.48;8.02;;;;;;;7.13;100.00;101013.84;5036081;28;20600;-75
2023/12/27 07:52:05;;;;;;;4.10;3.92;;;;;;;6.77;100.00;100957.34;5029095;28;20032;-76
2023/12/27 07:54:33;;;;;;;0.30;0.30;;;;;;;7.39;100.00;101038.81;5021407;28;20033;-76
2023/12/27 07:56:59;;;;;;;0.70;0.70;;;;;;;7.32;100.00;101013.41;5030350;28;20656;-75
2023/12/27 07:59:25;;;;;;;0.30;0.30;;;;;;;7.62;100.00;101035.84;5027432;28;20037;-75
2023/12/27 08:01:50;;;;;;;7.97;2.92;;;;;;;7.05;100.00;100947.56;5028073;28;20037;-75
2023/12/27 08:04:16;;;;;;;0.40;0.40;;;;;;;7.20;100.00;100987.03;5009390;28;20040;-75
2023/12/27 08:06:43;;;;;;;22.98;21.33;;;;;;;7.72;100.00;101037.81;5029621;28;20046;-75
2023/12/27 08:09:08;;;;;;;3.17;2.58;;;;;;;7.93;100.00;101062.63;5037634;28;20045;-75
2023/12/27 08:11:35;;;;;;;0.52;0.52;;;;;;;7.66;100.00;101018.53;5026864;28;20073;-76
2023/12/27 08:14:01;;;;;;;0.65;0.65;;;;;;;7.87;100.00;101066.00;5026540;28;20461;-76
2023/12/27 08:16:26;;;;;;;0.60;0.60;;;;;;;7.23;100.00;100939.25;5035003;28;20025;-77
2023/12/27 08:18:53;;;;;;;0.60;0.60;;;;;;;8.01;100.00;101068.91;5027042;28;20432;-75
2023/12/27 08:21:18;;;;;;;17.15;16.17;;;;;;;7.63;100.00;101021.06;5025372;28;20489;-76
2023/12/27 08:23:45;;;;;;;1.10;1.10;;;;;;;7.92;100.00;101040.84;5031846;28;20029;-76
2023/12/27 08:26:14;;;;;;;2.85;2.65;;;;;;;7.53;100.00;100952.09;5039914;28;20408;-75
2023/12/27 08:28:40;;;;;;;0.30;0.30;;;;;;;7.76;100.00;100944.72;5014870;28;20041;-75
2023/12/27 08:31:07;;;;;;;0.50;0.50;;;;;;;8.28;100.00;101031.09;5029100;28;20040;-75
2023/12/27 08:33:35;;;;;;;1.50;1.40;;;;;;;8.44;100.00;101039.28;5028976;28;20084;-75
2023/12/27 08:36:01;;;;;;;0.35;0.35;;;;;;;8.58;100.00;101063.09;5032574;28;20504;-75
2023/12/27 08:38:28;;;;;;;0.30;0.30;;;;;;;8.40;100.00;101011.31;5034190;28;20393;-76
2023/12/27 08:40:53;;;;;;;3.38;3.08;;;;;;;8.68;100.00;101031.88;5029672;28;20041;-75
2023/12/27 08:43:19;;;;;;;0.77;0.60;;;;;;;8.76;100.00;101052.09;5036100;28;20052;-77
2023/12/27 08:45:46;;;;;;;2.40;2.05;;;;;;;8.72;100.00;101038.94;5017145;28;20489;-76
2023/12/27 08:48:12;;;;;;;1.10;1.05;;;;;;;8.27;100.00;100962.25;5040350;28;20049;-74
2023/12/27 08:50:38;;;;;;;2.28;1.75;;;;;;;8.80;100.00;101059.16;5038520;28;20060;-74
2023/12/27 08:53:05;;;;;;;4.18;3.72;;;;;;;8.51;100.00;101026.34;5027627;28;20049;-75
2023/12/27 08:55:32;;;;;;;5.90;4.05;;;;;;;8.71;100.00;101056.38;5029791;28;20522;-75
2023/12/27 08:57:58;;;;;;;0.40;0.40;;;;;;;8.74;100.00;101052.94;5025409;28;20113;-75
2023/12/27 09:00:24;;;;;;;0.63;0.63;;;;;;;7.99;100.00;100927.75;5023787;28;20042;-75
2023/12/27 09:02:49;;;;;;;2.95;2.85;;;;;;;8.59;100.00;100972.41;5025678;28;20049;-75
2023/12/27 09:05:15;;;;;;;2.15;1.70;;;;;;;9.00;100.00;101049.00;5017347;28;20045;-75
2023/12/27 09:07:41;;;;;;;0.85;0.85;;;;;;;8.32;100.00;100964.97;5025904;28;20040;-75
2023/12/27 09:10:10;;;;;;;0.52;0.52;;;;;;;8.94;100.00;101043.66;5020922;28;20034;-76
2023/12/27 09:12:38;;;;;;;3.05;2.67;;;;;;;8.73;100.00;100981.38;5024157;28;20048;-74
2023/12/27 09:15:06;;;;;;;3.03;0.50;;;;;;;8.85;100.00;100983.34;5022785;28;20049;-74
2023/12/27 09:17:31;;;;;;;1.40;1.38;;;;;;;9.28;100.00;101050.34;5023767;28;20058;-75
2023/12/27 09:19:57;;;;;;;0.75;0.75;;;;;;;9.52;100.00;101047.19;5024706;28;20103;-75
2023/12/27 09:22:22;;;;;;;0.40;0.30;;;;;;;8.93;100.00;100938.97;5017018;28;20033;-74
2023/12/27 09:24:49;;;;;;;0.30;0.30;;;;;;;8.82;100.00;100954.50;5010555;28;20058;-75
2023/12/27 09:27:17;;;;;;;4.38;4.18;;;;;;;9.11;100.00;100956.66;5018855;28;20515;-75
2023/12/27 09:29:45;;;;;;;4.82;3.72;;;;;;;9.11;100.00;100975.91;5024023;28;20045;-75
2023/12/27 09:32:11;;;;;;;0.57;0.57;;;;;;;9.17;100.00;100957.63;5017657;28;20089;-76
2023/12/27 09:34:36;;;;;;;0.47;0.47;;;;;;;9.48;100.00;100969.44;5020063;28;20437;-76
2023/12/27 09:37:03;;;;;;;0.35;0.35;;;;;;;9.39;100.00;100947.47;5022635;28;20104;-75
2023/12/27 09:39:32;;;;;;;0.22;0.22;;;;;;;9.47;100.00;100961.56;5021007;28;20041;-74
2023/12/27 09:41:59;;;;;;;2.05;1.42;;;;;;;9.87;100.00;101049.44;5021901;28;20079;-76
2023/12/27 09:44:25;;;;;;;1.10;0.85;;;;;;;9.73;100.00;101033.50;5025733;28;20079;-74
2023/12/27 09:46:50;;;;;;;3.20;2.88;;;;;;;9.74;100.00;101029.19;5025072;28;20045;-75
2023/12/27 09:49:18;;;;;;;2.40;2.05;;;;;;;9.52;100.00;100946.78;5018785;28;20068;-74
2023/12/27 09:51:45;;;;;;;0.90;0.90;;;;;;;9.91;100.00;100997.94;5018217;28;20456;-76
2023/12/27 09:54:11;;;;;;;0.30;0.30;;;;;;;10.34;100.00;101056.16;5022546;28;20052;-74
2023/12/27 09:56:37;;;;;;;3.05;2.92;;;;;;;10.00;100.00;100963.09;5024706;28;20041;-75
2023/12/27 09:59:09;;;;;;;3.78;2.45;;;;;;;10.57;100.00;101038.91;5020838;28;20052;-74
2023/12/27 10:01:42;;;;;;;1.27;1.17;;;;;;;9.98;100.00;100925.47;5025119;28;20061;-77
2023/12/27 10:04:11;;;;;;;;;;;;;;;10.80;100.00;101061.00;5020542;28;20118;-75
2023/12/27 10:06:44;;;;;;;0.40;0.40;;;;;;;10.34;100.00;100986.19;5019259;28;19917;-75
2023/12/27 10:09:10;;;;;;;0.30;0.30;;;;;;;10.29;100.00;100966.91;5021012;28;20056;-75
2023/12/27 10:11:40;;;;;;;19.60;4.18;;;;;;;10.24;100.00;100971.19;5025781;28;20457;-75
2023/12/27 10:14:07;;;;;;;0.30;0.30;;;;;;;10.40;100.00;100982.78;5025319;28;20052;-76
2023/12/27 10:16:35;;;;;;;3.03;2.35;;;;;;;11.02;100.00;101070.81;5031627;28;20045;-75
2023/12/27 10:19:04;;;;;;;0.30;0.30;;;;;;;11.10;100.00;101071.78;5024581;28;20789;-75
2023/12/27 10:21:43;;;;;;;0.20;0.20;;;;;;;10.71;100.00;100999.66;5021470;28;20107;-75
2023/12/27 10:24:09;;;;;;;0.50;0.50;;;;;;;11.29;100.00;101074.56;5024550;28;20139;-75
2023/12/27 10:26:35;;;;;;;4.00;2.75;;;;;;;10.72;100.00;100993.56;5018410;28;20218;-74
2023/12/27 10:29:02;;;;;;;1.60;1.50;;;;;;;10.60;100.00;100985.56;5025471;28;20061;-74
2023/12/27 10:31:28;;;;;;;5.03;3.08;;;;;;;11.35;100.00;101069.34;5005530;28;20160;-75
2023/12/27 10:33:55;;;;;;;4.32;2.33;;;;;;;11.02;100.00;100960.53;5021246;28;20037;-76
2023/12/27 10:36:20;;;;;;;3.00;2.80;;;;;;;11.68;100.00;101058.16;5016501;28;20132;-74
2023/12/27 10:38:46;;;;;;;1.30;1.08;;;;;;;11.88;100.00;101050.44;5024500;28;20449;-74
2023/12/27 10:41:13;;;;;;;11.00;2.75;;;;;;;12.13;100.00;101030.38;5022485;28;20042;-76
2023/12/27 10:43:38;;;;;;;0.65;0.45;;;;;;;12.44;100.00;101041.00;5021669;28;20165;-75
2023/12/27 10:46:10;;;;;;;0.63;0.63;;;;;;;12.70;100.00;101030.50;5025479;28;20112;-76
2023/12/27 10:48:40;;;;;;;2.55;2.25;;;;;;;12.04;100.00;100878.66;5010195;28;20050;-76
2023/12/27 10:51:07;;;;;;;3.55;2.40;;;;;;;12.62;100.00;100948.00;5021359;28;20053;-75
2023/12/27 10:53:36;;;;;;;4.05;3.08;;;;;;;12.95;100.00;100972.59;5021011;28;20452;-76
2023/12/27 10:56:03;;;;;;;2.33;2.13;;;;;;;14.04;100.00;101046.16;5021462;28;20064;-75
2023/12/27 10:58:33;;;;;;;5.35;3.50;;;;;;;13.47;100.00;100941.75;5005628;28;20125;-76
2023/12/27 11:00:59;;;;;;;1.98;1.50;;;;;;;13.90;100.00;101001.34;5022912;28;20040;-76
2023/12/27 11:03:28;;;;;;;2.85;2.20;;;;;;;13.70;100.00;101030.47;5020043;28;20074;-75
2023/12/27 11:05:56;;;;;;;2.67;2.20;;;;;;;12.79;100.00;100953.28;5021910;28;20045;-75
2023/12/27 11:08:25;;;;;;;3.78;2.58;;;;;;;13.34;100.00;100954.97;5011080;28;20041;-76
2023/12/27 11:10:52;;;;;;;0.70;0.63;;;;;;;13.25;100.00;100967.25;5018906;28;20150;-75
2023/12/27 11:13:24;;;;;;;3.90;2.80;;;;;;;13.91;100.00;101016.31;5021611;28;20040;-76
2023/12/27 11:15:53;;;;;;;4.13;2.05;;;;;;;13.82;100.00;101037.47;5018015;28;20072;-76
2023/12/27 11:18:21;;;;;;;9.15;2.35;;;;;;;14.26;100.00;101039.03;5005022;28;20409;-76
2023/12/27 11:20:50;;;;;;;3.17;2.88;;;;;;;13.53;100.00;100935.56;5015641;28;20515;-75